sensor_id;sensor_type;location;lat;lon;timestamp;P1;durP1;ratioP1;P2;durP2;ratioP2
8177;SDS011;4130;48.740;9.132;2023-09-30T00:00:57;4.68;;;2.50;;
8177;SDS011;4130;48.740;9.132;2023-09-30T00:03:24;5.25;;;2.72;;
8177;SDS011;4130;48.740;9.132;2023-09-30T00:05:51;7.45;;;2.72;;
8177;SDS011;4130;48.740;9.132;2023-09-30T00:08:18;6.88;;;2.97;;
8177;SDS011;4130;48.740;9.132;2023-09-30T00:10:44;5.65;;;2.58;;
8177;SDS011;4130;48.740;9.132;2023-09-30T00:13:11;7.38;;;3.40;;
8177;SDS011;4130;48.740;9.132;2023-09-30T00:15:40;4.90;;;2.65;;
8177;SDS011;4130;48.740;9.132;2023-09-30T00:18:06;5.53;;;2.85;;
8177;SDS011;4130;48.740;9.132;2023-09-30T00:20:34;4.50;;;2.20;;
8177;SDS011;4130;48.740;9.132;2023-09-30T00:23:01;5.28;;;2.75;;
8177;SDS011;4130;48.740;9.132;2023-09-30T00:25:29;4.38;;;2.10;;
8177;SDS011;4130;48.740;9.132;2023-09-30T00:27:56;2.97;;;2.03;;
8177;SDS011;4130;48.740;9.132;2023-09-30T00:30:22;3.97;;;2.00;;
8177;SDS011;4130;48.740;9.132;2023-09-30T00:32:50;3.72;;;2.20;;
8177;SDS011;4130;48.740;9.132;2023-09-30T00:35:17;3.70;;;1.98;;
8177;SDS011;4130;48.740;9.132;2023-09-30T00:37:44;4.05;;;1.95;;
8177;SDS011;4130;48.740;9.132;2023-09-30T00:40:11;3.97;;;2.30;;
8177;SDS011;4130;48.740;9.132;2023-09-30T00:42:38;4.10;;;2.42;;
8177;SDS011;4130;48.740;9.132;2023-09-30T00:45:06;4.55;;;2.30;;
8177;SDS011;4130;48.740;9.132;2023-09-30T00:47:35;3.95;;;2.28;;
8177;SDS011;4130;48.740;9.132;2023-09-30T00:50:04;5.65;;;2.70;;
8177;SDS011;4130;48.740;9.132;2023-09-30T00:52:33;3.97;;;2.08;;
8177;SDS011;4130;48.740;9.132;2023-09-30T00:55:01;5.25;;;2.40;;
8177;SDS011;4130;48.740;9.132;2023-09-30T00:57:30;4.65;;;2.22;;
8177;SDS011;4130;48.740;9.132;2023-09-30T00:59:57;4.13;;;2.13;;
8177;SDS011;4130;48.740;9.132;2023-09-30T01:02:26;6.40;;;2.05;;
8177;SDS011;4130;48.740;9.132;2023-09-30T01:04:53;4.53;;;2.30;;
8177;SDS011;4130;48.740;9.132;2023-09-30T01:07:22;4.50;;;2.00;;
8177;SDS011;4130;48.740;9.132;2023-09-30T01:09:49;4.15;;;2.15;;
8177;SDS011;4130;48.740;9.132;2023-09-30T01:12:16;4.47;;;2.50;;
8177;SDS011;4130;48.740;9.132;2023-09-30T01:14:43;2.92;;;2.17;;
8177;SDS011;4130;48.740;9.132;2023-09-30T01:17:10;4.13;;;1.85;;
8177;SDS011;4130;48.740;9.132;2023-09-30T01:19:38;3.63;;;2.38;;
8177;SDS011;4130;48.740;9.132;2023-09-30T01:22:07;5.38;;;2.00;;
8177;SDS011;4130;48.740;9.132;2023-09-30T01:24:38;4.03;;;2.00;;
8177;SDS011;4130;48.740;9.132;2023-09-30T01:27:05;4.30;;;2.20;;
8177;SDS011;4130;48.740;9.132;2023-09-30T01:29:32;4.78;;;2.00;;
8177;SDS011;4130;48.740;9.132;2023-09-30T01:31:59;3.45;;;1.77;;
8177;SDS011;4130;48.740;9.132;2023-09-30T01:34:26;5.30;;;2.30;;
8177;SDS011;4130;48.740;9.132;2023-09-30T01:36:53;3.17;;;2.10;;
8177;SDS011;4130;48.740;9.132;2023-09-30T01:39:21;2.88;;;1.90;;
8177;SDS011;4130;48.740;9.132;2023-09-30T01:41:47;4.95;;;2.50;;
8177;SDS011;4130;48.740;9.132;2023-09-30T01:44:14;4.45;;;2.30;;
8177;SDS011;4130;48.740;9.132;2023-09-30T01:46:41;3.72;;;2.08;;
8177;SDS011;4130;48.740;9.132;2023-09-30T01:49:08;3.92;;;2.03;;
8177;SDS011;4130;48.740;9.132;2023-09-30T01:51:35;3.03;;;1.67;;
8177;SDS011;4130;48.740;9.132;2023-09-30T01:54:02;3.22;;;2.10;;
8177;SDS011;4130;48.740;9.132;2023-09-30T01:56:31;3.47;;;1.70;;
8177;SDS011;4130;48.740;9.132;2023-09-30T01:58:58;3.92;;;1.80;;
8177;SDS011;4130;48.740;9.132;2023-09-30T02:01:25;3.03;;;1.92;;
8177;SDS011;4130;48.740;9.132;2023-09-30T02:03:52;3.55;;;1.80;;
8177;SDS011;4130;48.740;9.132;2023-09-30T02:06:19;2.88;;;1.90;;
8177;SDS011;4130;48.740;9.132;2023-09-30T02:08:45;4.38;;;1.83;;
8177;SDS011;4130;48.740;9.132;2023-09-30T02:11:12;3.65;;;2.00;;
8177;SDS011;4130;48.740;9.132;2023-09-30T02:13:41;3.60;;;1.80;;
8177;SDS011;4130;48.740;9.132;2023-09-30T02:16:12;2.92;;;1.70;;
8177;SDS011;4130;48.740;9.132;2023-09-30T02:18:40;2.72;;;1.48;;
8177;SDS011;4130;48.740;9.132;2023-09-30T02:21:10;4.70;;;2.10;;
8177;SDS011;4130;48.740;9.132;2023-09-30T02:23:36;3.53;;;1.98;;
8177;SDS011;4130;48.740;9.132;2023-09-30T02:26:03;1.80;;;1.70;;
8177;SDS011;4130;48.740;9.132;2023-09-30T02:28:30;2.88;;;1.90;;
8177;SDS011;4130;48.740;9.132;2023-09-30T02:30:58;2.25;;;1.75;;
8177;SDS011;4130;48.740;9.132;2023-09-30T02:33:25;3.90;;;2.13;;
8177;SDS011;4130;48.740;9.132;2023-09-30T02:35:52;3.97;;;2.08;;
8177;SDS011;4130;48.740;9.132;2023-09-30T02:38:19;3.25;;;2.00;;
8177;SDS011;4130;48.740;9.132;2023-09-30T02:40:46;3.17;;;2.10;;
8177;SDS011;4130;48.740;9.132;2023-09-30T02:43:14;2.97;;;1.63;;
8177;SDS011;4130;48.740;9.132;2023-09-30T02:45:41;2.75;;;1.80;;
8177;SDS011;4130;48.740;9.132;2023-09-30T02:48:10;1.98;;;1.70;;
8177;SDS011;4130;48.740;9.132;2023-09-30T02:50:37;2.42;;;1.55;;
8177;SDS011;4130;48.740;9.132;2023-09-30T02:53:04;2.25;;;1.80;;
8177;SDS011;4130;48.740;9.132;2023-09-30T02:55:31;3.70;;;2.20;;
8177;SDS011;4130;48.740;9.132;2023-09-30T02:57:58;2.85;;;1.70;;
8177;SDS011;4130;48.740;9.132;2023-09-30T03:00:26;3.03;;;2.03;;
8177;SDS011;4130;48.740;9.132;2023-09-30T03:02:57;2.97;;;1.95;;
8177;SDS011;4130;48.740;9.132;2023-09-30T03:05:28;3.13;;;1.77;;
8177;SDS011;4130;48.740;9.132;2023-09-30T03:07:55;1.75;;;1.50;;
8177;SDS011;4130;48.740;9.132;2023-09-30T03:10:22;2.22;;;1.80;;
8177;SDS011;4130;48.740;9.132;2023-09-30T03:12:49;2.70;;;1.27;;
8177;SDS011;4130;48.740;9.132;2023-09-30T03:15:16;2.55;;;1.60;;
8177;SDS011;4130;48.740;9.132;2023-09-30T03:17:43;3.55;;;1.85;;
8177;SDS011;4130;48.740;9.132;2023-09-30T03:20:11;3.00;;;1.77;;
8177;SDS011;4130;48.740;9.132;2023-09-30T03:22:41;2.00;;;1.73;;
8177;SDS011;4130;48.740;9.132;2023-09-30T03:25:09;2.00;;;1.63;;
8177;SDS011;4130;48.740;9.132;2023-09-30T03:27:37;2.05;;;1.52;;
8177;SDS011;4130;48.740;9.132;2023-09-30T03:30:04;3.30;;;1.90;;
8177;SDS011;4130;48.740;9.132;2023-09-30T03:32:32;2.33;;;1.95;;
8177;SDS011;4130;48.740;9.132;2023-09-30T03:34:59;4.30;;;2.30;;
8177;SDS011;4130;48.740;9.132;2023-09-30T03:37:26;2.60;;;1.75;;
8177;SDS011;4130;48.740;9.132;2023-09-30T03:39:54;4.30;;;2.40;;
8177;SDS011;4130;48.740;9.132;2023-09-30T03:42:21;3.17;;;2.00;;
8177;SDS011;4130;48.740;9.132;2023-09-30T03:44:48;1.92;;;1.67;;
8177;SDS011;4130;48.740;9.132;2023-09-30T03:47:15;3.75;;;1.88;;
8177;SDS011;4130;48.740;9.132;2023-09-30T03:49:42;2.10;;;1.88;;
8177;SDS011;4130;48.740;9.132;2023-09-30T03:52:09;2.85;;;1.75;;
8177;SDS011;4130;48.740;9.132;2023-09-30T03:54:36;3.42;;;1.65;;
8177;SDS011;4130;48.740;9.132;2023-09-30T03:57:05;2.90;;;1.95;;
8177;SDS011;4130;48.740;9.132;2023-09-30T03:59:31;3.42;;;2.00;;
8177;SDS011;4130;48.740;9.132;2023-09-30T04:01:59;2.75;;;1.70;;
8177;SDS011;4130;48.740;9.132;2023-09-30T04:04:26;2.10;;;1.88;;
8177;SDS011;4130;48.740;9.132;2023-09-30T04:06:53;2.67;;;1.75;;
8177;SDS011;4130;48.740;9.132;2023-09-30T04:09:19;2.50;;;1.80;;
8177;SDS011;4130;48.740;9.132;2023-09-30T04:11:46;1.63;;;1.42;;
8177;SDS011;4130;48.740;9.132;2023-09-30T04:14:15;2.85;;;1.83;;
8177;SDS011;4130;48.740;9.132;2023-09-30T04:16:42;2.92;;;1.90;;
8177;SDS011;4130;48.740;9.132;2023-09-30T04:19:09;3.50;;;1.75;;
8177;SDS011;4130;48.740;9.132;2023-09-30T04:21:36;2.72;;;1.42;;
8177;SDS011;4130;48.740;9.132;2023-09-30T04:24:04;2.63;;;1.80;;
8177;SDS011;4130;48.740;9.132;2023-09-30T04:26:32;4.00;;;2.13;;
8177;SDS011;4130;48.740;9.132;2023-09-30T04:28:59;3.30;;;1.90;;
8177;SDS011;4130;48.740;9.132;2023-09-30T04:31:27;2.42;;;2.08;;
8177;SDS011;4130;48.740;9.132;2023-09-30T04:33:54;3.13;;;2.08;;
8177;SDS011;4130;48.740;9.132;2023-09-30T04:36:22;2.20;;;1.70;;
8177;SDS011;4130;48.740;9.132;2023-09-30T04:38:49;2.40;;;1.88;;
8177;SDS011;4130;48.740;9.132;2023-09-30T04:41:16;2.10;;;1.83;;
8177;SDS011;4130;48.740;9.132;2023-09-30T04:43:44;2.60;;;2.17;;
8177;SDS011;4130;48.740;9.132;2023-09-30T04:46:11;2.00;;;1.70;;
8177;SDS011;4130;48.740;9.132;2023-09-30T04:48:39;2.50;;;1.63;;
8177;SDS011;4130;48.740;9.132;2023-09-30T04:51:06;2.55;;;1.70;;
8177;SDS011;4130;48.740;9.132;2023-09-30T04:53:34;3.75;;;1.58;;
8177;SDS011;4130;48.740;9.132;2023-09-30T04:56:00;2.60;;;1.98;;
8177;SDS011;4130;48.740;9.132;2023-09-30T04:58:28;2.95;;;1.75;;
8177;SDS011;4130;48.740;9.132;2023-09-30T05:00:56;2.47;;;1.88;;
8177;SDS011;4130;48.740;9.132;2023-09-30T05:03:23;2.67;;;1.77;;
8177;SDS011;4130;48.740;9.132;2023-09-30T05:05:51;3.22;;;2.00;;
8177;SDS011;4130;48.740;9.132;2023-09-30T05:08:20;2.75;;;1.98;;
8177;SDS011;4130;48.740;9.132;2023-09-30T05:10:48;1.80;;;1.40;;
8177;SDS011;4130;48.740;9.132;2023-09-30T05:13:15;2.60;;;1.80;;
8177;SDS011;4130;48.740;9.132;2023-09-30T05:15:42;2.25;;;2.05;;
8177;SDS011;4130;48.740;9.132;2023-09-30T05:18:09;3.05;;;1.90;;
8177;SDS011;4130;48.740;9.132;2023-09-30T05:20:36;2.88;;;1.92;;
8177;SDS011;4130;48.740;9.132;2023-09-30T05:23:05;2.72;;;1.90;;
8177;SDS011;4130;48.740;9.132;2023-09-30T05:25:33;2.95;;;1.90;;
8177;SDS011;4130;48.740;9.132;2023-09-30T05:28:00;2.20;;;1.63;;
8177;SDS011;4130;48.740;9.132;2023-09-30T05:30:26;2.60;;;2.00;;
8177;SDS011;4130;48.740;9.132;2023-09-30T05:32:53;3.08;;;2.17;;
8177;SDS011;4130;48.740;9.132;2023-09-30T05:35:20;4.00;;;2.08;;
8177;SDS011;4130;48.740;9.132;2023-09-30T05:37:47;3.45;;;2.35;;
8177;SDS011;4130;48.740;9.132;2023-09-30T05:40:18;3.50;;;2.22;;
8177;SDS011;4130;48.740;9.132;2023-09-30T05:42:50;2.50;;;2.20;;
8177;SDS011;4130;48.740;9.132;2023-09-30T05:45:17;2.08;;;1.88;;
8177;SDS011;4130;48.740;9.132;2023-09-30T05:47:44;3.05;;;2.08;;
8177;SDS011;4130;48.740;9.132;2023-09-30T05:50:11;2.13;;;1.92;;
8177;SDS011;4130;48.740;9.132;2023-09-30T05:52:40;3.65;;;2.20;;
8177;SDS011;4130;48.740;9.132;2023-09-30T05:55:08;3.72;;;2.70;;
8177;SDS011;4130;48.740;9.132;2023-09-30T05:57:36;3.05;;;2.25;;
8177;SDS011;4130;48.740;9.132;2023-09-30T06:00:04;3.08;;;2.10;;
8177;SDS011;4130;48.740;9.132;2023-09-30T06:02:46;1.98;;;1.70;;
8177;SDS011;4130;48.740;9.132;2023-09-30T06:05:13;2.92;;;2.10;;
8177;SDS011;4130;48.740;9.132;2023-09-30T06:07:43;1.67;;;1.58;;
8177;SDS011;4130;48.740;9.132;2023-09-30T06:10:10;2.90;;;2.00;;
8177;SDS011;4130;48.740;9.132;2023-09-30T06:12:39;6.15;;;2.20;;
8177;SDS011;4130;48.740;9.132;2023-09-30T06:15:07;2.55;;;2.17;;
8177;SDS011;4130;48.740;9.132;2023-09-30T06:17:40;3.53;;;2.58;;
8177;SDS011;4130;48.740;9.132;2023-09-30T06:20:07;4.10;;;2.35;;
8177;SDS011;4130;48.740;9.132;2023-09-30T06:22:41;2.03;;;1.88;;
8177;SDS011;4130;48.740;9.132;2023-09-30T06:25:08;3.28;;;1.98;;
8177;SDS011;4130;48.740;9.132;2023-09-30T06:27:36;3.50;;;1.90;;
8177;SDS011;4130;48.740;9.132;2023-09-30T06:30:05;5.38;;;2.20;;
8177;SDS011;4130;48.740;9.132;2023-09-30T06:32:34;2.45;;;1.85;;
8177;SDS011;4130;48.740;9.132;2023-09-30T06:35:01;2.22;;;1.90;;
8177;SDS011;4130;48.740;9.132;2023-09-30T06:37:29;3.65;;;1.90;;
8177;SDS011;4130;48.740;9.132;2023-09-30T06:39:56;3.00;;;1.92;;
8177;SDS011;4130;48.740;9.132;2023-09-30T06:42:23;3.10;;;2.20;;
8177;SDS011;4130;48.740;9.132;2023-09-30T06:44:51;3.70;;;1.73;;
8177;SDS011;4130;48.740;9.132;2023-09-30T06:47:21;4.18;;;2.38;;
8177;SDS011;4130;48.740;9.132;2023-09-30T06:49:47;2.10;;;1.90;;
8177;SDS011;4130;48.740;9.132;2023-09-30T06:52:14;3.67;;;2.47;;
8177;SDS011;4130;48.740;9.132;2023-09-30T06:54:42;4.63;;;2.28;;
8177;SDS011;4130;48.740;9.132;2023-09-30T06:57:08;3.08;;;2.17;;
8177;SDS011;4130;48.740;9.132;2023-09-30T06:59:35;2.90;;;2.10;;
8177;SDS011;4130;48.740;9.132;2023-09-30T07:02:02;2.83;;;2.08;;
8177;SDS011;4130;48.740;9.132;2023-09-30T07:04:30;2.50;;;2.25;;
8177;SDS011;4130;48.740;9.132;2023-09-30T07:06:57;3.88;;;2.00;;
8177;SDS011;4130;48.740;9.132;2023-09-30T07:09:24;4.80;;;2.58;;
8177;SDS011;4130;48.740;9.132;2023-09-30T07:11:51;5.00;;;2.25;;
8177;SDS011;4130;48.740;9.132;2023-09-30T07:14:18;2.47;;;2.05;;
8177;SDS011;4130;48.740;9.132;2023-09-30T07:16:45;4.82;;;2.20;;
8177;SDS011;4130;48.740;9.132;2023-09-30T07:19:12;5.70;;;2.70;;
8177;SDS011;4130;48.740;9.132;2023-09-30T07:21:40;4.55;;;2.17;;
8177;SDS011;4130;48.740;9.132;2023-09-30T07:24:07;7.95;;;2.78;;
8177;SDS011;4130;48.740;9.132;2023-09-30T07:26:34;3.95;;;2.30;;
8177;SDS011;4130;48.740;9.132;2023-09-30T07:29:01;3.53;;;2.55;;
8177;SDS011;4130;48.740;9.132;2023-09-30T07:31:32;3.45;;;2.17;;
8177;SDS011;4130;48.740;9.132;2023-09-30T07:34:00;4.97;;;2.50;;
8177;SDS011;4130;48.740;9.132;2023-09-30T07:36:27;3.67;;;2.30;;
8177;SDS011;4130;48.740;9.132;2023-09-30T07:38:55;3.95;;;2.33;;
8177;SDS011;4130;48.740;9.132;2023-09-30T07:41:21;4.60;;;2.30;;
8177;SDS011;4130;48.740;9.132;2023-09-30T07:43:48;3.47;;;2.20;;
8177;SDS011;4130;48.740;9.132;2023-09-30T07:46:15;2.53;;;2.30;;
8177;SDS011;4130;48.740;9.132;2023-09-30T07:48:42;3.00;;;2.10;;
8177;SDS011;4130;48.740;9.132;2023-09-30T07:51:08;2.95;;;2.10;;
8177;SDS011;4130;48.740;9.132;2023-09-30T07:53:38;4.82;;;2.17;;
8177;SDS011;4130;48.740;9.132;2023-09-30T07:56:06;2.92;;;2.40;;
8177;SDS011;4130;48.740;9.132;2023-09-30T07:58:33;5.43;;;2.20;;
8177;SDS011;4130;48.740;9.132;2023-09-30T08:01:00;3.80;;;2.13;;
8177;SDS011;4130;48.740;9.132;2023-09-30T08:03:29;2.70;;;2.15;;
8177;SDS011;4130;48.740;9.132;2023-09-30T08:05:56;3.53;;;2.00;;
8177;SDS011;4130;48.740;9.132;2023-09-30T08:08:23;3.30;;;2.17;;
8177;SDS011;4130;48.740;9.132;2023-09-30T08:10:50;3.10;;;1.83;;
8177;SDS011;4130;48.740;9.132;2023-09-30T08:13:21;3.20;;;2.35;;
8177;SDS011;4130;48.740;9.132;2023-09-30T08:15:49;3.10;;;2.33;;
8177;SDS011;4130;48.740;9.132;2023-09-30T08:18:16;4.10;;;2.42;;
8177;SDS011;4130;48.740;9.132;2023-09-30T08:20:43;3.88;;;2.03;;
8177;SDS011;4130;48.740;9.132;2023-09-30T08:23:10;4.15;;;2.28;;
8177;SDS011;4130;48.740;9.132;2023-09-30T08:25:37;8.70;;;2.92;;
8177;SDS011;4130;48.740;9.132;2023-09-30T08:28:04;2.75;;;2.22;;
8177;SDS011;4130;48.740;9.132;2023-09-30T08:30:33;3.60;;;2.17;;
8177;SDS011;4130;48.740;9.132;2023-09-30T08:33:00;4.03;;;2.30;;
8177;SDS011;4130;48.740;9.132;2023-09-30T08:35:28;4.30;;;2.63;;
8177;SDS011;4130;48.740;9.132;2023-09-30T08:37:56;4.03;;;2.00;;
8177;SDS011;4130;48.740;9.132;2023-09-30T08:40:24;4.90;;;2.30;;
8177;SDS011;4130;48.740;9.132;2023-09-30T08:42:51;3.38;;;2.13;;
8177;SDS011;4130;48.740;9.132;2023-09-30T08:45:18;2.53;;;1.88;;
8177;SDS011;4130;48.740;9.132;2023-09-30T08:47:47;3.97;;;2.40;;
8177;SDS011;4130;48.740;9.132;2023-09-30T08:50:15;3.72;;;2.20;;
8177;SDS011;4130;48.740;9.132;2023-09-30T08:52:43;11.25;;;2.80;;
8177;SDS011;4130;48.740;9.132;2023-09-30T08:55:11;3.28;;;2.38;;
8177;SDS011;4130;48.740;9.132;2023-09-30T08:57:39;3.65;;;2.03;;
8177;SDS011;4130;48.740;9.132;2023-09-30T09:00:07;3.25;;;2.30;;
8177;SDS011;4130;48.740;9.132;2023-09-30T09:02:36;4.13;;;2.40;;
8177;SDS011;4130;48.740;9.132;2023-09-30T09:05:05;3.55;;;2.22;;
8177;SDS011;4130;48.740;9.132;2023-09-30T09:07:34;3.50;;;2.45;;
8177;SDS011;4130;48.740;9.132;2023-09-30T09:10:04;4.50;;;2.45;;
8177;SDS011;4130;48.740;9.132;2023-09-30T09:12:33;3.95;;;2.25;;
8177;SDS011;4130;48.740;9.132;2023-09-30T09:15:01;3.58;;;2.10;;
8177;SDS011;4130;48.740;9.132;2023-09-30T09:17:41;4.50;;;1.98;;
8177;SDS011;4130;48.740;9.132;2023-09-30T09:20:11;3.88;;;1.92;;
8177;SDS011;4130;48.740;9.132;2023-09-30T09:22:45;3.13;;;2.30;;
8177;SDS011;4130;48.740;9.132;2023-09-30T09:25:12;4.47;;;2.40;;
8177;SDS011;4130;48.740;9.132;2023-09-30T09:27:39;2.85;;;2.17;;
8177;SDS011;4130;48.740;9.132;2023-09-30T09:30:15;3.90;;;2.30;;
8177;SDS011;4130;48.740;9.132;2023-09-30T09:32:53;2.97;;;2.05;;
8177;SDS011;4130;48.740;9.132;2023-09-30T09:35:28;3.42;;;2.45;;
8177;SDS011;4130;48.740;9.132;2023-09-30T09:37:57;3.63;;;2.40;;
8177;SDS011;4130;48.740;9.132;2023-09-30T09:40:26;2.40;;;1.90;;
8177;SDS011;4130;48.740;9.132;2023-09-30T09:42:53;3.25;;;2.20;;
8177;SDS011;4130;48.740;9.132;2023-09-30T09:45:21;5.55;;;2.50;;
8177;SDS011;4130;48.740;9.132;2023-09-30T09:47:49;4.32;;;2.22;;
8177;SDS011;4130;48.740;9.132;2023-09-30T09:50:17;3.03;;;2.03;;
8177;SDS011;4130;48.740;9.132;2023-09-30T09:52:46;3.30;;;2.15;;
8177;SDS011;4130;48.740;9.132;2023-09-30T09:55:15;3.65;;;2.10;;
8177;SDS011;4130;48.740;9.132;2023-09-30T09:57:43;4.25;;;2.08;;
8177;SDS011;4130;48.740;9.132;2023-09-30T10:00:12;4.55;;;2.42;;
8177;SDS011;4130;48.740;9.132;2023-09-30T10:02:41;3.55;;;2.38;;
8177;SDS011;4130;48.740;9.132;2023-09-30T10:05:08;3.83;;;2.10;;
8177;SDS011;4130;48.740;9.132;2023-09-30T10:07:37;4.80;;;2.25;;
8177;SDS011;4130;48.740;9.132;2023-09-30T10:10:09;4.35;;;2.30;;
8177;SDS011;4130;48.740;9.132;2023-09-30T10:12:40;4.22;;;2.03;;
8177;SDS011;4130;48.740;9.132;2023-09-30T10:18:05;3.00;;;2.30;;
8177;SDS011;4130;48.740;9.132;2023-09-30T10:20:33;5.05;;;1.92;;
8177;SDS011;4130;48.740;9.132;2023-09-30T10:25:54;4.63;;;2.20;;
8177;SDS011;4130;48.740;9.132;2023-09-30T10:28:43;16.92;;;3.60;;
8177;SDS011;4130;48.740;9.132;2023-09-30T10:31:11;8.55;;;3.08;;
8177;SDS011;4130;48.740;9.132;2023-09-30T10:36:45;6.68;;;2.67;;
8177;SDS011;4130;48.740;9.132;2023-09-30T10:39:19;9.07;;;2.83;;
8177;SDS011;4130;48.740;9.132;2023-09-30T10:42:43;4.38;;;2.63;;
8177;SDS011;4130;48.740;9.132;2023-09-30T10:51:00;3.65;;;2.40;;
8177;SDS011;4130;48.740;9.132;2023-09-30T10:53:27;4.65;;;2.92;;
8177;SDS011;4130;48.740;9.132;2023-09-30T10:55:57;7.07;;;2.60;;
8177;SDS011;4130;48.740;9.132;2023-09-30T10:58:38;3.85;;;2.35;;
8177;SDS011;4130;48.740;9.132;2023-09-30T11:01:05;6.00;;;2.60;;
8177;SDS011;4130;48.740;9.132;2023-09-30T11:03:32;4.45;;;2.63;;
8177;SDS011;4130;48.740;9.132;2023-09-30T11:05:59;2.60;;;2.13;;
8177;SDS011;4130;48.740;9.132;2023-09-30T11:08:28;3.63;;;2.50;;
8177;SDS011;4130;48.740;9.132;2023-09-30T11:10:57;4.65;;;2.65;;
8177;SDS011;4130;48.740;9.132;2023-09-30T11:13:30;3.45;;;2.13;;
8177;SDS011;4130;48.740;9.132;2023-09-30T11:15:59;4.43;;;2.58;;
8177;SDS011;4130;48.740;9.132;2023-09-30T11:18:27;4.20;;;2.63;;
8177;SDS011;4130;48.740;9.132;2023-09-30T11:21:02;4.43;;;2.40;;
8177;SDS011;4130;48.740;9.132;2023-09-30T11:23:33;5.05;;;2.80;;
8177;SDS011;4130;48.740;9.132;2023-09-30T11:26:03;2.97;;;2.50;;
8177;SDS011;4130;48.740;9.132;2023-09-30T11:28:38;6.05;;;2.50;;
8177;SDS011;4130;48.740;9.132;2023-09-30T11:31:07;3.63;;;2.50;;
8177;SDS011;4130;48.740;9.132;2023-09-30T11:33:49;4.78;;;2.88;;
8177;SDS011;4130;48.740;9.132;2023-09-30T11:36:17;5.13;;;2.85;;
8177;SDS011;4130;48.740;9.132;2023-09-30T11:38:45;5.78;;;2.97;;
8177;SDS011;4130;48.740;9.132;2023-09-30T11:41:15;5.53;;;3.17;;
8177;SDS011;4130;48.740;9.132;2023-09-30T11:46:26;4.63;;;2.55;;
8177;SDS011;4130;48.740;9.132;2023-09-30T11:48:57;3.97;;;2.63;;
8177;SDS011;4130;48.740;9.132;2023-09-30T11:51:25;4.57;;;2.85;;
8177;SDS011;4130;48.740;9.132;2023-09-30T11:53:52;7.35;;;4.03;;
8177;SDS011;4130;48.740;9.132;2023-09-30T11:56:20;7.35;;;3.50;;
8177;SDS011;4130;48.740;9.132;2023-09-30T11:58:52;6.45;;;3.40;;
8177;SDS011;4130;48.740;9.132;2023-09-30T12:01:19;7.15;;;3.75;;
8177;SDS011;4130;48.740;9.132;2023-09-30T12:03:47;6.22;;;3.28;;
8177;SDS011;4130;48.740;9.132;2023-09-30T12:06:14;5.38;;;3.08;;
8177;SDS011;4130;48.740;9.132;2023-09-30T12:08:41;4.55;;;2.83;;
8177;SDS011;4130;48.740;9.132;2023-09-30T12:11:08;6.18;;;3.00;;
8177;SDS011;4130;48.740;9.132;2023-09-30T12:13:39;6.45;;;3.22;;
8177;SDS011;4130;48.740;9.132;2023-09-30T12:16:06;3.67;;;2.55;;
8177;SDS011;4130;48.740;9.132;2023-09-30T12:18:34;6.18;;;3.20;;
8177;SDS011;4130;48.740;9.132;2023-09-30T12:21:01;4.97;;;3.17;;
8177;SDS011;4130;48.740;9.132;2023-09-30T12:23:28;5.38;;;2.78;;
8177;SDS011;4130;48.740;9.132;2023-09-30T12:25:54;5.93;;;2.75;;
8177;SDS011;4130;48.740;9.132;2023-09-30T12:28:21;3.90;;;2.45;;
8177;SDS011;4130;48.740;9.132;2023-09-30T12:30:49;7.07;;;2.78;;
8177;SDS011;4130;48.740;9.132;2023-09-30T12:33:17;3.78;;;2.60;;
8177;SDS011;4130;48.740;9.132;2023-09-30T12:35:44;4.72;;;2.88;;
8177;SDS011;4130;48.740;9.132;2023-09-30T12:38:11;5.85;;;2.72;;
8177;SDS011;4130;48.740;9.132;2023-09-30T12:40:37;4.00;;;2.55;;
8177;SDS011;4130;48.740;9.132;2023-09-30T12:43:04;3.28;;;2.35;;
8177;SDS011;4130;48.740;9.132;2023-09-30T12:45:31;5.20;;;3.15;;
8177;SDS011;4130;48.740;9.132;2023-09-30T12:48:00;6.25;;;2.55;;
8177;SDS011;4130;48.740;9.132;2023-09-30T12:50:27;6.68;;;3.15;;
8177;SDS011;4130;48.740;9.132;2023-09-30T12:52:53;5.50;;;2.90;;
8177;SDS011;4130;48.740;9.132;2023-09-30T12:55:20;5.95;;;3.00;;
8177;SDS011;4130;48.740;9.132;2023-09-30T12:57:47;8.15;;;3.03;;
8177;SDS011;4130;48.740;9.132;2023-09-30T13:00:14;5.55;;;3.00;;
8177;SDS011;4130;48.740;9.132;2023-09-30T13:02:42;5.03;;;3.10;;
8177;SDS011;4130;48.740;9.132;2023-09-30T13:05:10;5.28;;;2.90;;
8177;SDS011;4130;48.740;9.132;2023-09-30T13:07:37;4.57;;;2.60;;
8177;SDS011;4130;48.740;9.132;2023-09-30T13:10:04;5.65;;;2.85;;
8177;SDS011;4130;48.740;9.132;2023-09-30T13:12:32;6.68;;;2.92;;
8177;SDS011;4130;48.740;9.132;2023-09-30T13:15:00;7.22;;;3.33;;
8177;SDS011;4130;48.740;9.132;2023-09-30T13:17:27;4.70;;;2.72;;
8177;SDS011;4130;48.740;9.132;2023-09-30T13:19:54;7.10;;;2.65;;
8177;SDS011;4130;48.740;9.132;2023-09-30T13:22:22;5.82;;;3.03;;
8177;SDS011;4130;48.740;9.132;2023-09-30T13:24:49;4.22;;;2.80;;
8177;SDS011;4130;48.740;9.132;2023-09-30T13:27:16;4.35;;;2.78;;
8177;SDS011;4130;48.740;9.132;2023-09-30T13:29:43;4.00;;;2.45;;
8177;SDS011;4130;48.740;9.132;2023-09-30T13:32:11;5.45;;;2.90;;
8177;SDS011;4130;48.740;9.132;2023-09-30T13:34:40;5.43;;;2.95;;
8177;SDS011;4130;48.740;9.132;2023-09-30T13:37:07;6.57;;;3.03;;
8177;SDS011;4130;48.740;9.132;2023-09-30T13:39:35;5.18;;;2.95;;
8177;SDS011;4130;48.740;9.132;2023-09-30T13:42:01;7.00;;;3.10;;
8177;SDS011;4130;48.740;9.132;2023-09-30T13:44:28;6.50;;;3.10;;
8177;SDS011;4130;48.740;9.132;2023-09-30T13:46:55;4.00;;;2.60;;
8177;SDS011;4130;48.740;9.132;2023-09-30T13:49:22;7.38;;;2.90;;
8177;SDS011;4130;48.740;9.132;2023-09-30T13:51:48;4.40;;;2.70;;
8177;SDS011;4130;48.740;9.132;2023-09-30T13:54:15;6.20;;;3.03;;
8177;SDS011;4130;48.740;9.132;2023-09-30T13:56:43;5.57;;;3.08;;
8177;SDS011;4130;48.740;9.132;2023-09-30T13:59:10;4.88;;;2.80;;
8177;SDS011;4130;48.740;9.132;2023-09-30T14:01:37;6.45;;;2.83;;
8177;SDS011;4130;48.740;9.132;2023-09-30T14:04:06;6.60;;;2.83;;
8177;SDS011;4130;48.740;9.132;2023-09-30T14:06:33;5.90;;;3.30;;
8177;SDS011;4130;48.740;9.132;2023-09-30T14:09:00;6.05;;;3.40;;
8177;SDS011;4130;48.740;9.132;2023-09-30T14:11:27;5.07;;;3.05;;
8177;SDS011;4130;48.740;9.132;2023-09-30T14:13:57;4.18;;;2.63;;
8177;SDS011;4130;48.740;9.132;2023-09-30T14:16:23;5.90;;;3.47;;
8177;SDS011;4130;48.740;9.132;2023-09-30T14:18:50;4.57;;;2.70;;
8177;SDS011;4130;48.740;9.132;2023-09-30T14:21:17;6.75;;;3.05;;
8177;SDS011;4130;48.740;9.132;2023-09-30T14:23:44;5.28;;;2.80;;
8177;SDS011;4130;48.740;9.132;2023-09-30T14:26:11;5.35;;;2.83;;
8177;SDS011;4130;48.740;9.132;2023-09-30T14:28:39;4.95;;;3.03;;
8177;SDS011;4130;48.740;9.132;2023-09-30T14:31:08;6.68;;;3.30;;
8177;SDS011;4130;48.740;9.132;2023-09-30T14:33:34;4.93;;;2.92;;
8177;SDS011;4130;48.740;9.132;2023-09-30T14:36:02;4.55;;;2.90;;
8177;SDS011;4130;48.740;9.132;2023-09-30T14:38:30;3.80;;;2.70;;
8177;SDS011;4130;48.740;9.132;2023-09-30T14:40:57;5.25;;;2.92;;
8177;SDS011;4130;48.740;9.132;2023-09-30T14:43:24;6.95;;;3.30;;
8177;SDS011;4130;48.740;9.132;2023-09-30T14:45:51;4.32;;;2.58;;
8177;SDS011;4130;48.740;9.132;2023-09-30T14:48:19;5.03;;;2.88;;
8177;SDS011;4130;48.740;9.132;2023-09-30T14:50:49;4.63;;;3.05;;
8177;SDS011;4130;48.740;9.132;2023-09-30T14:53:15;5.03;;;2.80;;
8177;SDS011;4130;48.740;9.132;2023-09-30T14:55:42;5.75;;;2.75;;
8177;SDS011;4130;48.740;9.132;2023-09-30T14:58:09;7.57;;;3.15;;
8177;SDS011;4130;48.740;9.132;2023-09-30T15:00:36;4.82;;;2.90;;
8177;SDS011;4130;48.740;9.132;2023-09-30T15:03:02;5.45;;;3.00;;
8177;SDS011;4130;48.740;9.132;2023-09-30T15:05:31;5.90;;;2.80;;
8177;SDS011;4130;48.740;9.132;2023-09-30T15:07:58;6.18;;;3.17;;
8177;SDS011;4130;48.740;9.132;2023-09-30T15:10:26;4.45;;;2.67;;
8177;SDS011;4130;48.740;9.132;2023-09-30T15:12:53;5.38;;;2.72;;
8177;SDS011;4130;48.740;9.132;2023-09-30T15:15:20;4.47;;;2.70;;
8177;SDS011;4130;48.740;9.132;2023-09-30T15:17:47;5.63;;;3.15;;
8177;SDS011;4130;48.740;9.132;2023-09-30T15:20:14;4.47;;;2.63;;
8177;SDS011;4130;48.740;9.132;2023-09-30T15:22:43;5.28;;;3.05;;
8177;SDS011;4130;48.740;9.132;2023-09-30T15:25:10;4.57;;;2.58;;
8177;SDS011;4130;48.740;9.132;2023-09-30T15:27:37;5.57;;;2.80;;
8177;SDS011;4130;48.740;9.132;2023-09-30T15:30:04;6.45;;;2.80;;
8177;SDS011;4130;48.740;9.132;2023-09-30T15:32:31;4.72;;;2.55;;
8177;SDS011;4130;48.740;9.132;2023-09-30T15:34:59;6.13;;;3.10;;
8177;SDS011;4130;48.740;9.132;2023-09-30T15:37:26;4.10;;;2.60;;